Time;durP1;ratioP1;P1;durP2;ratioP2;P2;SDS_P1;SDS_P2;PMS_P1;PMS_P2;Temp;Humidity;BMP_temperature;BMP_pressure;BME280_temperature;BME280_humidity;BME280_pressure;Samples;Min_cycle;Max_cycle;Signal;HPM_P1;HPM_P2
2021/08/24 00:01:36;;;;;;;7.80;6.90;;;;;;;17.22;81.50;95637.03;1826355;78;21010;-72
2021/08/24 00:04:02;;;;;;;10.53;9.30;;;;;;;17.32;81.59;95644.16;1826062;78;20966;-72
2021/08/24 00:06:29;;;;;;;12.33;9.83;;;;;;;17.32;81.59;95644.16;1826124;78;20962;-73
2021/08/24 00:08:55;;;;;;;11.97;9.78;;;;;;;17.43;81.97;95635.20;1825874;78;21090;-73
2021/08/24 00:11:22;;;;;;;12.20;10.25;;;;;;;17.62;81.56;95633.91;1826059;78;21006;-72
2021/08/24 00:13:49;;;;;;;13.08;11.28;;;;;;;17.62;81.56;95633.91;1826209;78;21041;-72
2021/08/24 00:16:17;;;;;;;13.83;10.38;;;;;;;17.70;81.16;95637.56;1826252;78;21021;-72
2021/08/24 00:18:45;;;;;;;12.98;11.38;;;;;;;17.74;81.36;95639.16;1825799;78;20995;-73
2021/08/24 00:21:12;;;;;;;14.63;11.30;;;;;;;17.77;81.30;95644.35;1826302;78;20966;-72
2021/08/24 00:23:39;;;;;;;13.38;11.35;;;;;;;17.78;81.79;95631.39;1826336;78;20990;-72
2021/08/24 00:26:05;;;;;;;12.33;11.05;;;;;;;17.78;81.79;95631.39;1826154;78;21444;-73
2021/08/24 00:28:32;;;;;;;13.50;11.50;;;;;;;17.80;81.54;95630.89;1826082;78;21082;-73
2021/08/24 00:30:58;;;;;;;12.00;9.70;;;;;;;17.76;81.43;95628.40;1826124;78;21461;-70
2021/08/24 00:33:26;;;;;;;11.38;10.15;;;;;;;17.73;81.62;95644.08;1825946;78;21523;-72
2021/08/24 00:35:52;;;;;;;10.60;8.85;;;;;;;17.73;81.62;95644.08;1825825;78;21133;-72
2021/08/24 00:38:23;;;;;;;10.40;7.47;;;;;;;17.62;81.09;95641.05;1825865;78;21033;-73
2021/08/24 00:40:55;;;;;;;10.00;9.00;;;;;;;17.56;81.47;95644.84;1826242;78;21042;-73
2021/08/24 00:43:23;;;;;;;10.60;8.38;;;;;;;17.51;81.25;95648.19;1825056;78;21040;-73
2021/08/24 00:45:55;;;;;;;9.83;7.75;;;;;;;17.48;82.22;95642.52;1826070;78;21472;-72
2021/08/24 00:48:31;;;;;;;9.13;8.15;;;;;;;17.45;81.59;95641.81;1825916;78;20982;-72
2021/08/24 00:50:59;;;;;;;10.60;9.08;;;;;;;17.40;82.01;95643.34;1826122;78;21507;-72
2021/08/24 00:53:30;;;;;;;11.60;9.38;;;;;;;17.39;82.31;95636.29;1825066;78;21002;-72
2021/08/24 00:56:01;;;;;;;9.20;7.53;;;;;;;17.34;82.06;95639.63;1826212;78;21483;-72
2021/08/24 00:58:28;;;;;;;10.68;9.45;;;;;;;17.34;82.06;95639.63;1826134;78;20986;-72
2021/08/24 01:00:55;;;;;;;13.22;9.50;;;;;;;17.28;82.76;95639.41;1826107;78;20982;-72
2021/08/24 01:03:27;;;;;;;12.13;9.73;;;;;;;17.29;83.33;95630.97;1825802;78;21012;-72
2021/08/24 01:06:02;;;;;;;9.80;8.43;;;;;;;17.42;83.45;95634.81;1821446;78;21078;-73
2021/08/24 01:08:55;;;;;;;12.63;9.90;;;;;;;17.41;82.75;95635.75;1826261;78;20927;-72
2021/08/24 01:11:42;;;;;;;13.38;10.05;;;;;;;17.41;82.89;95637.09;1826533;78;20991;-73
2021/08/24 01:14:13;;;;;;;13.13;9.60;;;;;;;17.42;82.47;95639.28;1826070;78;20986;-72
2021/08/24 01:16:45;;;;;;;11.22;9.90;;;;;;;17.42;82.91;95639.28;1825630;78;21006;-72
2021/08/24 01:19:33;;;;;;;10.93;9.68;;;;;;;17.42;82.91;95631.28;1825986;78;21036;-73
2021/08/24 01:22:20;;;;;;;11.95;10.40;;;;;;;17.41;83.55;95629.53;1825652;78;20975;-73
2021/08/24 01:24:52;;;;;;;12.37;10.70;;;;;;;17.42;83.50;95632.14;1826104;78;21507;-72
2021/08/24 01:27:42;;;;;;;13.50;10.48;;;;;;;17.53;83.54;95628.98;1826160;78;20982;-72
2021/08/24 01:30:21;;;;;;;8.13;7.33;;;;;;;17.60;81.92;95613.09;1826247;78;21443;-73
2021/08/24 01:33:10;;;;;;;8.30;7.00;;;;;;;17.66;80.92;95623.95;1824989;78;21448;-73
2021/08/24 01:35:59;;;;;;;8.28;7.37;;;;;;;17.66;80.92;95623.95;1826110;78;20990;-72
2021/08/24 01:38:29;;;;;;;10.53;7.97;;;;;;;17.71;80.44;95624.16;1801798;78;21026;-72
2021/08/24 01:41:14;;;;;;;9.18;7.65;;;;;;;17.83;80.38;95635.22;1826299;78;21496;-73
2021/08/24 01:44:02;;;;;;;8.50;7.30;;;;;;;17.86;80.19;95629.26;1825969;78;20998;-73
2021/08/24 01:46:48;;;;;;;8.78;6.70;;;;;;;17.82;80.35;95625.02;1825327;78;21034;-73
2021/08/24 01:49:18;;;;;;;7.85;6.67;;;;;;;17.70;80.74;95614.41;1794227;78;21006;-72
2021/08/24 01:51:49;;;;;;;7.72;6.92;;;;;;;17.61;80.32;95616.63;1826105;78;20955;-73
2021/08/24 01:54:24;;;;;;;7.72;6.40;;;;;;;17.52;80.41;95624.13;1824902;78;21084;-72
2021/08/24 01:56:53;;;;;;;7.00;6.30;;;;;;;17.47;80.66;95619.94;1825949;78;20954;-73
2021/08/24 01:59:28;;;;;;;6.25;5.08;;;;;;;17.56;80.96;95626.17;1826064;78;21550;-72
2021/08/24 02:02:11;;;;;;;6.47;5.87;;;;;;;17.55;80.32;95624.92;1825738;78;21539;-72
2021/08/24 02:04:49;;;;;;;6.80;5.97;;;;;;;17.53;80.68;95620.50;1826108;78;20967;-72
2021/08/24 02:07:19;;;;;;;8.58;6.42;;;;;;;17.48;80.28;95626.99;1826122;78;21469;-73
2021/08/24 02:09:49;;;;;;;6.50;5.78;;;;;;;17.45;80.64;95617.33;1826098;78;21010;-72
2021/08/24 02:12:20;;;;;;;7.85;6.65;;;;;;;17.39;80.77;95622.09;1826115;78;20962;-72
2021/08/24 02:14:47;;;;;;;7.37;6.28;;;;;;;17.34;81.63;95626.73;1826038;78;21026;-73
2021/08/24 02:17:17;;;;;;;7.50;6.15;;;;;;;17.26;81.36;95622.64;1825767;78;21027;-72
2021/08/24 02:19:55;;;;;;;8.05;6.17;;;;;;;17.26;81.36;95622.64;1825878;78;21041;-72
2021/08/24 02:22:32;;;;;;;11.53;6.62;;;;;;;17.31;81.35;95626.41;1826334;78;21025;-72
2021/08/24 02:25:13;;;;;;;6.83;5.22;;;;;;;17.36;81.19;95631.54;1794154;78;20971;-72
2021/08/24 02:27:54;;;;;;;8.78;6.40;;;;;;;17.27;81.08;95626.16;1812749;78;21113;-72
2021/08/24 02:30:21;;;;;;;7.47;6.42;;;;;;;17.17;81.87;95635.03;1825995;78;21062;-72
2021/08/24 02:32:50;;;;;;;9.45;6.53;;;;;;;17.08;81.60;95639.42;1826133;78;21038;-73
2021/08/24 02:35:40;;;;;;;6.30;5.70;;;;;;;17.01;81.83;95632.61;1826176;78;21053;-72
2021/08/24 02:38:24;;;;;;;9.93;7.42;;;;;;;17.08;81.38;95646.98;1825130;78;21018;-73
2021/08/24 02:41:04;;;;;;;7.30;5.83;;;;;;;17.02;81.49;95654.36;1826248;78;21005;-73
2021/08/24 02:43:42;;;;;;;10.00;6.85;;;;;;;17.11;81.80;95648.64;1826280;78;21018;-73
2021/08/24 02:46:30;;;;;;;9.15;7.85;;;;;;;17.11;81.80;95648.64;1824642;78;21014;-72
2021/08/24 02:49:05;;;;;;;11.83;9.05;;;;;;;17.09;80.95;95650.50;1826179;78;21042;-72
2021/08/24 02:51:32;;;;;;;10.60;8.90;;;;;;;17.11;80.87;95648.64;1825529;78;20994;-72
2021/08/24 02:54:08;;;;;;;11.15;8.18;;;;;;;17.05;80.86;95653.75;1814506;79;21010;-72
2021/08/24 02:56:35;;;;;;;5.95;5.25;;;;;;;17.03;80.43;95660.08;1726992;83;21045;-72
2021/08/24 02:59:02;;;;;;;17.40;10.50;;;;;;;16.98;81.04;95664.27;1742447;82;21019;-72
2021/08/24 03:01:28;;;;;;;21.50;19.25;;;;;;;16.90;81.52;95669.53;1754701;81;21002;-72
2021/08/24 03:03:55;;;;;;;14.45;9.95;;;;;;;16.90;81.52;95669.53;1742607;82;21568;-72
2021/08/24 03:06:21;;;;;;;13.43;10.23;;;;;;;16.82;81.93;95674.72;1750364;82;21087;-72
2021/08/24 03:08:49;;;;;;;18.92;13.05;;;;;;;16.82;81.93;95674.72;1750821;81;20998;-72
2021/08/24 03:11:21;;;;;;;23.87;16.37;;;;;;;16.79;81.96;95661.53;1750796;82;21061;-72
2021/08/24 03:14:17;;;;;;;20.15;12.98;;;;;;;16.69;81.22;95653.48;1750913;82;21566;-71
2021/08/24 03:16:52;;;;;;;17.23;10.32;;;;;;;16.69;81.22;95653.48;1758205;82;21138;-72
2021/08/24 03:19:23;;;;;;;22.13;12.80;;;;;;;16.64;80.97;95660.80;1742610;82;21552;-71
2021/08/24 03:21:50;;;;;;;15.95;9.88;;;;;;;16.61;82.09;95664.94;1759060;81;21527;-72
2021/08/24 03:24:19;;;;;;;7.85;7.05;;;;;;;16.68;82.55;95675.71;1742795;82;21055;-71
2021/08/24 03:26:47;;;;;;;8.68;6.83;;;;;;;16.76;82.81;95678.95;1750707;82;21079;-72
2021/08/24 03:29:18;;;;;;;7.78;6.00;;;;;;;16.81;82.50;95678.80;1750812;81;21023;-72
2021/08/24 03:31:50;;;;;;;14.10;9.88;;;;;;;16.78;82.79;95675.80;1751011;81;21481;-71
2021/08/24 03:34:17;;;;;;;23.52;12.23;;;;;;;16.78;82.77;95685.56;1750162;82;21007;-72
2021/08/24 03:36:43;;;;;;;17.02;12.13;;;;;;;16.75;82.54;95690.98;1750889;82;20994;-72
2021/08/24 03:39:10;;;;;;;19.77;11.33;;;;;;;16.78;82.12;95697.11;1750797;81;21007;-71
2021/08/24 03:41:37;;;;;;;18.02;11.28;;;;;;;16.78;81.77;95689.12;1750719;81;21480;-72
2021/08/24 03:44:04;;;;;;;15.72;11.75;;;;;;;16.72;82.58;95695.13;1750839;82;21010;-72
2021/08/24 03:46:31;;;;;;;24.47;15.08;;;;;;;16.69;83.11;95692.12;1750810;81;21007;-72
2021/08/24 03:48:57;;;;;;;23.60;15.08;;;;;;;16.77;82.41;95706.45;1750333;82;21063;-72
2021/08/24 03:51:25;;;;;;;21.37;13.83;;;;;;;16.79;82.33;95713.49;1750946;81;21499;-72
2021/08/24 03:53:51;;;;;;;17.07;12.45;;;;;;;16.71;81.44;95725.37;1756595;80;21107;-72
2021/08/24 03:56:18;;;;;;;21.93;12.75;;;;;;;16.71;81.44;95725.37;1781970;80;21007;-72
2021/08/24 03:58:45;;;;;;;22.42;12.73;;;;;;;16.74;82.30;95737.23;1781583;80;21042;-72
2021/08/24 04:01:14;;;;;;;18.50;12.07;;;;;;;16.74;82.30;95737.23;1781961;80;21007;-71
2021/08/24 04:03:41;;;;;;;17.17;11.00;;;;;;;16.72;82.80;95735.09;1781853;80;21003;-72
2021/08/24 04:06:08;;;;;;;10.35;8.33;;;;;;;16.69;82.96;95737.88;1781830;80;21038;-71
2021/08/24 04:08:36;;;;;;;10.18;7.40;;;;;;;16.69;83.53;95733.89;1781712;80;21555;-72
2021/08/24 04:11:08;;;;;;;11.18;7.80;;;;;;;16.83;83.21;95735.53;1781597;80;20991;-72
2021/08/24 04:13:35;;;;;;;13.35;8.50;;;;;;;16.83;83.21;95735.53;1781899;80;21454;-72
2021/08/24 04:16:08;;;;;;;9.25;7.20;;;;;;;16.93;82.97;95738.70;1781779;80;20971;-71
2021/08/24 04:18:35;;;;;;;6.10;5.33;;;;;;;16.89;83.05;95729.97;1781975;80;21018;-72
2021/08/24 04:21:07;;;;;;;9.10;6.42;;;;;;;16.90;82.87;95742.35;1781490;80;21050;-71
2021/08/24 04:23:34;;;;;;;9.68;6.87;;;;;;;16.82;83.30;95729.34;1780860;80;20999;-72
2021/08/24 04:26:01;;;;;;;7.22;6.50;;;;;;;16.95;83.82;95743.03;1781952;80;21011;-72
2021/08/24 04:28:29;;;;;;;7.42;6.67;;;;;;;16.99;83.70;95739.32;1781833;80;20999;-72
2021/08/24 04:30:57;;;;;;;14.85;10.70;;;;;;;17.04;83.64;95736.00;1781764;80;21014;-72
2021/08/24 04:33:24;;;;;;;25.97;20.57;;;;;;;17.04;83.64;95736.00;1781612;80;21015;-72
2021/08/24 04:35:53;;;;;;;23.12;15.32;;;;;;;17.07;83.80;95726.53;1781876;80;21027;-72
2021/08/24 04:38:20;;;;;;;18.65;14.18;;;;;;;17.26;83.42;95725.30;1781775;80;21019;-72
2021/08/24 04:40:47;;;;;;;24.30;16.60;;;;;;;17.32;82.89;95725.50;1781833;80;21005;-72
2021/08/24 04:43:15;;;;;;;26.82;20.00;;;;;;;17.39;82.14;95726.97;1781716;80;21015;-72
2021/08/24 04:45:42;;;;;;;28.30;18.60;;;;;;;17.42;82.15;95732.64;1781818;80;20995;-72
2021/08/24 04:48:09;;;;;;;24.43;16.77;;;;;;;17.42;82.15;95732.64;1782165;80;20986;-72
2021/08/24 04:50:36;;;;;;;18.55;12.75;;;;;;;17.44;82.79;95730.30;1781426;80;21034;-70
2021/08/24 04:53:04;;;;;;;18.15;15.28;;;;;;;17.49;82.90;95731.45;1781824;80;21481;-72
2021/08/24 04:55:33;;;;;;;14.15;11.15;;;;;;;17.56;82.60;95736.89;1782548;80;21019;-72
2021/08/24 04:58:02;;;;;;;11.80;10.10;;;;;;;17.58;82.17;95731.02;1782851;80;21015;-72
2021/08/24 05:00:31;;;;;;;14.95;11.18;;;;;;;17.71;82.24;95737.58;1783070;80;21063;-72
2021/08/24 05:02:57;;;;;;;14.18;12.37;;;;;;;17.79;81.86;95739.01;1782951;80;21018;-72
2021/08/24 05:05:25;;;;;;;22.35;15.45;;;;;;;17.87;81.50;95751.59;1782670;80;21007;-72
2021/08/24 05:07:52;;;;;;;18.05;12.88;;;;;;;17.90;81.23;95752.80;1782928;80;21010;-72
2021/08/24 05:10:21;;;;;;;24.75;17.32;;;;;;;17.79;81.51;95747.91;1782663;80;20980;-72
2021/08/24 05:12:48;;;;;;;18.48;13.13;;;;;;;17.81;81.92;95749.19;1782700;80;21484;-72
2021/08/24 05:15:15;;;;;;;17.60;11.18;;;;;;;17.80;81.94;95742.13;1782980;80;21069;-71
2021/08/24 05:17:41;;;;;;;13.88;11.00;;;;;;;17.81;81.67;95741.18;1782904;80;21007;-72
2021/08/24 05:20:09;;;;;;;24.72;12.45;;;;;;;17.83;81.55;95733.98;1782285;80;21066;-72
2021/08/24 05:22:36;;;;;;;21.77;13.93;;;;;;;17.88;81.61;95739.50;1783125;80;20995;-72
2021/08/24 05:25:04;;;;;;;18.42;13.78;;;;;;;17.79;81.56;95741.67;1783203;80;20959;-71
2021/08/24 05:27:33;;;;;;;13.88;11.63;;;;;;;17.82;81.89;95741.59;1782999;80;20979;-72
2021/08/24 05:30:06;;;;;;;18.37;13.13;;;;;;;17.86;81.71;95744.51;1782891;80;21445;-71
2021/08/24 05:32:33;;;;;;;19.17;14.30;;;;;;;17.77;81.32;95744.91;1782825;80;21016;-72
2021/08/24 05:35:00;;;;;;;19.35;14.30;;;;;;;17.76;82.20;95743.16;1782787;80;21015;-72
2021/08/24 05:37:27;;;;;;;15.28;11.18;;;;;;;17.77;82.46;95749.77;1783084;80;21007;-72
2021/08/24 05:39:53;;;;;;;10.23;9.08;;;;;;;17.78;82.48;95751.97;1782913;80;20998;-71
2021/08/24 05:42:20;;;;;;;13.53;10.23;;;;;;;17.86;82.32;95753.85;1782670;80;21075;-71
2021/08/24 05:44:46;;;;;;;12.45;10.82;;;;;;;17.82;81.75;95759.80;1783308;80;20995;-72
2021/08/24 05:47:13;;;;;;;10.98;9.78;;;;;;;17.86;81.96;95758.72;1782979;80;21003;-71
2021/08/24 05:49:39;;;;;;;9.88;8.70;;;;;;;17.92;81.95;95755.79;1782805;80;20987;-72
2021/08/24 05:52:11;;;;;;;10.23;8.48;;;;;;;17.92;81.63;95754.93;1782881;80;21014;-71
2021/08/24 05:54:38;;;;;;;9.00;8.10;;;;;;;17.84;81.39;95745.04;1785214;80;20971;-71
2021/08/24 05:57:05;;;;;;;8.68;7.83;;;;;;;17.86;81.92;95748.04;1790696;80;21488;-71
2021/08/24 05:59:34;;;;;;;13.62;8.53;;;;;;;17.91;81.63;95754.51;1790733;80;21493;-71
2021/08/24 06:02:00;;;;;;;12.70;10.93;;;;;;;17.98;81.36;95746.63;1790666;80;21038;-71
2021/08/24 06:04:29;;;;;;;13.95;11.38;;;;;;;17.98;80.86;95743.09;1790643;80;21105;-71
2021/08/24 06:06:55;;;;;;;12.37;10.63;;;;;;;17.92;81.36;95745.11;1790708;80;21464;-71
2021/08/24 06:09:22;;;;;;;11.22;10.08;;;;;;;18.00;81.42;95747.91;1790658;80;21511;-71
2021/08/24 06:11:52;;;;;;;9.30;8.40;;;;;;;18.12;81.37;95746.02;1790888;80;20994;-71
2021/08/24 06:14:22;;;;;;;9.78;8.78;;;;;;;18.19;80.82;95753.26;1790820;80;21033;-72
2021/08/24 06:16:56;;;;;;;11.30;7.67;;;;;;;18.23;80.72;95757.53;1790593;80;21523;-72
2021/08/24 06:19:18;;;;;;;9.80;6.65;;;;;;;18.15;80.08;95756.55;1790202;80;21026;-72
2021/08/24 06:21:45;;;;;;;10.15;7.97;;;;;;;18.08;80.75;95755.95;1790849;80;20983;-72
2021/08/24 06:24:12;;;;;;;10.23;8.30;;;;;;;18.06;80.74;95751.62;1790586;80;21561;-72
2021/08/24 06:26:38;;;;;;;12.25;7.95;;;;;;;18.07;81.25;95750.70;1791092;80;20990;-72
2021/08/24 06:29:05;;;;;;;10.85;7.72;;;;;;;18.15;81.46;95752.07;1790563;80;20983;-72
2021/08/24 06:31:32;;;;;;;10.70;8.08;;;;;;;18.20;81.13;95749.20;1790912;80;21033;-73
2021/08/24 06:34:00;;;;;;;8.70;7.83;;;;;;;18.24;81.51;95743.23;1790884;80;21029;-73
2021/08/24 06:36:27;;;;;;;8.65;7.83;;;;;;;18.24;81.71;95739.22;1787898;80;21049;-72
2021/08/24 06:38:53;;;;;;;8.30;7.50;;;;;;;18.31;81.46;95734.00;1790922;80;21448;-73
2021/08/24 06:41:21;;;;;;;10.35;8.20;;;;;;;18.32;81.34;95736.61;1790871;80;20998;-72
2021/08/24 06:43:47;;;;;;;12.35;9.93;;;;;;;18.32;81.33;95728.59;1790837;80;20979;-73
2021/08/24 06:46:14;;;;;;;15.70;12.05;;;;;;;18.24;80.77;95738.75;1790521;80;21012;-72
2021/08/24 06:48:41;;;;;;;15.35;11.95;;;;;;;18.24;80.87;95736.55;1790888;80;20971;-72
2021/08/24 06:51:09;;;;;;;14.75;10.20;;;;;;;18.14;80.98;95737.00;1790737;80;20978;-72
2021/08/24 06:53:37;;;;;;;15.30;11.43;;;;;;;18.02;81.19;95736.22;1790802;80;21351;-72
2021/08/24 06:56:04;;;;;;;13.85;11.28;;;;;;;17.99;81.46;95734.14;1783765;80;21046;-72
2021/08/24 06:58:31;;;;;;;11.85;10.60;;;;;;;18.01;82.22;95738.47;1781603;80;20998;-72
2021/08/24 07:00:58;;;;;;;15.72;10.90;;;;;;;18.07;82.51;95730.20;1781745;80;21015;-72
2021/08/24 07:03:25;;;;;;;12.33;10.95;;;;;;;18.16;82.28;95730.23;1781941;80;21019;-72
2021/08/24 07:05:52;;;;;;;13.13;11.73;;;;;;;18.16;82.03;95736.91;1781494;80;21007;-73
2021/08/24 07:08:19;;;;;;;14.05;11.50;;;;;;;18.11;82.18;95726.44;1782232;80;21119;-72
2021/08/24 07:10:48;;;;;;;11.78;10.58;;;;;;;18.09;81.90;95718.09;1781634;80;21513;-73
2021/08/24 07:13:18;;;;;;;11.45;10.25;;;;;;;18.09;82.25;95724.77;1781867;80;20987;-72
2021/08/24 07:15:44;;;;;;;12.15;10.48;;;;;;;18.09;82.12;95716.77;1781974;80;21050;-72
2021/08/24 07:18:11;;;;;;;12.05;10.78;;;;;;;18.05;81.98;95720.53;1781245;80;21049;-72
2021/08/24 07:20:38;;;;;;;14.00;11.05;;;;;;;18.07;82.49;95730.67;1781618;80;21022;-73
2021/08/24 07:23:05;;;;;;;14.38;10.82;;;;;;;18.05;82.36;95729.40;1781654;80;21019;-73
2021/08/24 07:25:37;;;;;;;13.65;10.58;;;;;;;18.03;82.34;95727.27;1781936;80;21014;-73
2021/08/24 07:28:00;;;;;;;12.43;9.70;;;;;;;18.08;82.25;95726.58;1781463;80;21119;-72
2021/08/24 07:30:27;;;;;;;10.78;9.45;;;;;;;18.11;82.16;95733.11;1782026;80;21007;-73
2021/08/24 07:32:53;;;;;;;11.53;9.58;;;;;;;18.12;81.91;95721.51;1781814;80;21034;-72
2021/08/24 07:35:20;;;;;;;11.85;10.23;;;;;;;18.11;81.79;95721.56;1781980;80;20980;-72
2021/08/24 07:37:46;;;;;;;10.63;9.15;;;;;;;18.19;82.07;95720.73;1781618;80;21074;-73
2021/08/24 07:40:15;;;;;;;13.60;8.95;;;;;;;18.22;82.06;95711.27;1781978;80;20982;-73
2021/08/24 07:42:44;;;;;;;12.37;8.90;;;;;;;18.33;82.17;95714.77;1781897;80;21015;-72
2021/08/24 07:45:12;;;;;;;7.72;6.87;;;;;;;18.40;81.81;95716.21;1782035;80;21014;-72
2021/08/24 07:47:38;;;;;;;9.80;6.67;;;;;;;18.54;81.20;95712.39;1781615;80;20975;-72
2021/08/24 07:50:06;;;;;;;10.55;8.55;;;;;;;18.49;80.18;95710.89;1781877;80;21015;-71
2021/08/24 07:52:33;;;;;;;9.03;8.13;;;;;;;18.45;80.94;95713.33;1781834;80;20971;-71
2021/08/24 07:54:59;;;;;;;8.48;7.65;;;;;;;18.58;80.93;95706.45;1783647;80;21058;-71
2021/08/24 07:57:26;;;;;;;8.88;7.55;;;;;;;18.80;80.92;95712.99;1790959;80;21041;-71
2021/08/24 07:59:52;;;;;;;10.68;8.05;;;;;;;19.02;80.90;95722.12;1790832;80;21481;-70
2021/08/24 08:02:19;;;;;;;10.35;7.90;;;;;;;19.17;80.29;95722.70;1790673;80;20983;-69
2021/08/24 08:04:46;;;;;;;11.03;8.28;;;;;;;19.24;79.67;95721.92;1790916;80;20999;-68
2021/08/24 08:07:14;;;;;;;8.03;7.22;;;;;;;19.35;79.50;95723.59;1790325;80;21101;-68
2021/08/24 08:09:41;;;;;;;8.43;7.47;;;;;;;19.42;78.73;95725.47;1790414;80;21018;-68
2021/08/24 08:12:08;;;;;;;7.80;6.45;;;;;;;19.43;78.83;95717.85;1790839;80;21093;-68
2021/08/24 08:14:35;;;;;;;8.23;7.37;;;;;;;19.53;77.38;95720.45;1790741;80;21026;-68
2021/08/24 08:17:02;;;;;;;7.45;6.70;;;;;;;19.50;77.54;95716.56;1790784;80;21053;-68
2021/08/24 08:19:28;;;;;;;7.70;7.00;;;;;;;19.46;77.34;95718.55;1790681;80;21006;-68
2021/08/24 08:21:55;;;;;;;8.23;7.05;;;;;;;19.52;78.37;95725.86;1790283;80;21026;-68
2021/08/24 08:24:21;;;;;;;8.40;7.60;;;;;;;19.49;77.37;95728.23;1790694;80;21015;-68
2021/08/24 08:26:48;;;;;;;9.70;8.10;;;;;;;19.50;77.34;95731.77;1791027;80;21014;-68
2021/08/24 08:29:14;;;;;;;9.98;8.33;;;;;;;19.53;77.14;95735.61;1790767;80;20967;-68
2021/08/24 08:31:43;;;;;;;12.40;9.25;;;;;;;19.53;77.61;95741.85;1790792;80;20954;-68
2021/08/24 08:34:11;;;;;;;12.82;8.53;;;;;;;19.57;77.76;95744.75;1790799;80;21014;-68
2021/08/24 08:36:38;;;;;;;15.13;9.45;;;;;;;19.63;77.49;95747.13;1790368;80;20987;-68
2021/08/24 08:39:06;;;;;;;16.02;8.88;;;;;;;19.69;77.38;95743.77;1790708;80;21002;-68
2021/08/24 08:41:59;;;;;;;16.93;8.65;;;;;;;19.76;77.47;95747.86;1790713;80;21070;-68
2021/08/24 08:44:56;;;;;;;19.73;8.95;;;;;;;19.86;76.62;95745.09;1790729;80;21464;-68
2021/08/24 08:47:57;;;;;;;19.87;9.60;;;;;;;19.89;75.94;95750.28;1789709;80;20995;-68
2021/08/24 08:50:46;;;;;;;12.80;10.88;;;;;;;19.82;75.98;95748.37;1790838;80;21006;-68
2021/08/24 08:53:33;;;;;;;10.60;9.10;;;;;;;19.77;75.91;95748.23;1790673;80;21002;-68
2021/08/24 08:56:25;;;;;;;9.78;8.80;;;;;;;19.68;75.14;95750.94;1786320;80;21022;-68
2021/08/24 08:59:12;;;;;;;9.35;8.33;;;;;;;19.64;75.55;95766.72;1783091;80;21010;-68
2021/08/24 09:02:24;;;;;;;10.25;8.60;;;;;;;19.60;75.60;95762.45;1782308;80;21023;-68
2021/08/24 09:04:53;;;;;;;9.13;8.23;;;;;;;19.54;76.07;95750.74;1759798;80;21038;-68
2021/08/24 09:07:43;;;;;;;10.18;7.85;;;;;;;19.53;75.88;95743.19;1782896;80;21512;-68
2021/08/24 09:10:20;;;;;;;13.05;9.03;;;;;;;19.58;77.03;95742.48;1783069;80;20982;-67
2021/08/24 09:12:55;;;;;;;10.82;8.33;;;;;;;19.66;77.48;95734.91;1783022;80;21469;-68
2021/08/24 09:15:26;;;;;;;9.40;8.30;;;;;;;19.80;78.07;95735.55;1783042;80;21473;-68
2021/08/24 09:17:53;;;;;;;10.30;8.43;;;;;;;19.89;77.07;95741.77;1782221;80;20995;-68
2021/08/24 09:20:25;;;;;;;9.10;8.18;;;;;;;19.86;75.84;95752.64;1782676;80;21019;-68
2021/08/24 09:22:53;;;;;;;9.30;8.40;;;;;;;19.89;76.24;95754.30;1783112;80;21011;-68
2021/08/24 09:25:25;;;;;;;8.53;7.70;;;;;;;19.88;76.22;95758.79;1782752;80;20991;-68
2021/08/24 09:27:59;;;;;;;12.03;7.80;;;;;;;19.85;76.55;95760.27;1783004;80;21027;-68
2021/08/24 09:30:26;;;;;;;9.85;8.18;;;;;;;19.83;76.04;95757.27;1782416;80;21006;-68
2021/08/24 09:32:58;;;;;;;9.73;8.65;;;;;;;19.91;76.34;95763.56;1782697;80;21011;-68
2021/08/24 09:35:35;;;;;;;10.48;9.40;;;;;;;19.96;76.32;95753.02;1783146;80;21046;-68
2021/08/24 09:38:07;;;;;;;9.73;8.73;;;;;;;19.99;76.19;95748.84;1782529;80;21050;-68
2021/08/24 09:40:47;;;;;;;10.27;8.87;;;;;;;19.98;76.49;95751.14;1781614;80;20995;-68
2021/08/24 09:43:38;;;;;;;10.13;8.25;;;;;;;20.04;76.45;95740.56;1782924;80;21002;-68
2021/08/24 09:46:19;;;;;;;9.45;7.90;;;;;;;20.15;76.19;95746.67;1782739;80;21054;-67
2021/08/24 09:48:57;;;;;;;9.53;7.95;;;;;;;20.23;75.48;95743.95;1782653;80;21011;-67
2021/08/24 09:51:53;;;;;;;11.30;10.08;;;;;;;20.30;75.72;95744.02;1782868;80;20987;-68
2021/08/24 09:54:45;;;;;;;10.78;9.40;;;;;;;20.60;76.12;95743.80;1754455;80;20971;-67
2021/08/24 09:57:37;;;;;;;12.35;9.85;;;;;;;20.92;74.68;95741.98;1789013;80;21041;-67
2021/08/24 10:00:18;;;;;;;9.55;8.65;;;;;;;21.19;74.55;95744.88;1790606;80;21046;-68
2021/08/24 10:02:50;;;;;;;10.90;9.40;;;;;;;21.16;73.65;95744.58;1790702;80;20983;-68
2021/08/24 10:05:24;;;;;;;10.23;8.75;;;;;;;21.02;73.62;95749.89;1790659;80;21030;-67
2021/08/24 10:07:55;;;;;;;10.00;9.00;;;;;;;20.90;73.96;95751.45;1790573;80;21478;-68
2021/08/24 10:10:30;;;;;;;9.85;8.53;;;;;;;20.65;74.10;95754.64;1790993;80;21487;-68
2021/08/24 10:13:00;;;;;;;9.18;8.33;;;;;;;20.39;75.19;95758.75;1750562;82;21026;-68
2021/08/24 10:15:38;;;;;;;9.48;8.45;;;;;;;20.36;74.76;95759.38;1743020;82;21056;-67
2021/08/24 10:18:23;;;;;;;9.68;8.68;;;;;;;20.38;75.40;95759.67;1743352;82;20986;-67
2021/08/24 10:20:57;;;;;;;10.53;8.50;;;;;;;20.56;75.44;95748.93;1743390;82;20995;-68
2021/08/24 10:23:34;;;;;;;8.95;7.20;;;;;;;20.82;75.26;95746.15;1743360;82;21524;-68
2021/08/24 10:26:03;;;;;;;7.65;6.85;;;;;;;20.99;74.64;95742.48;1743122;82;21034;-68
2021/08/24 10:28:50;;;;;;;9.03;7.42;;;;;;;21.16;73.30;95741.89;1743288;82;21009;-69
2021/08/24 10:32:06;;;;;;;7.87;7.12;;;;;;;21.37;73.39;95738.94;1743423;82;21044;-70
2021/08/24 10:34:44;;;;;;;7.42;6.72;;;;;;;21.50;72.07;95738.62;1742187;82;21025;-70
2021/08/24 10:37:28;;;;;;;7.10;6.40;;;;;;;21.48;72.50;95734.30;1749949;82;21047;-69
2021/08/24 10:40:14;;;;;;;8.58;7.30;;;;;;;21.54;71.89;95729.89;1742963;82;21006;-70
2021/08/24 10:43:01;;;;;;;8.45;7.40;;;;;;;21.53;70.90;95730.38;1743192;82;21061;-70
2021/08/24 10:45:34;;;;;;;7.78;7.05;;;;;;;21.24;71.21;95737.91;1743387;82;21046;-70
2021/08/24 10:48:15;;;;;;;8.73;7.87;;;;;;;21.14;71.27;95745.17;1743385;82;20998;-70
2021/08/24 10:51:08;;;;;;;9.10;7.42;;;;;;;21.07;71.56;95742.45;1743379;82;20990;-70
2021/08/24 10:54:06;;;;;;;;;;;;;;;21.00;71.71;95737.04;1745851;82;21022;-69
2021/08/24 10:57:00;;;;;;;8.35;7.58;;;;;;;20.95;72.32;95732.41;1749711;82;20098;-69
2021/08/24 11:00:03;;;;;;;8.55;7.70;;;;;;;21.09;72.75;95736.52;1756178;82;21054;-69
2021/08/24 11:02:59;;;;;;;8.78;7.92;;;;;;;21.38;71.52;95727.23;1756402;82;21111;-71
2021/08/24 11:05:58;;;;;;;12.98;7.53;;;;;;;21.63;71.32;95723.98;1756569;81;21543;-69
2021/08/24 11:08:48;;;;;;;9.03;8.10;;;;;;;21.70;70.28;95725.34;1746287;81;21027;-69
2021/08/24 11:11:25;;;;;;;11.12;8.20;;;;;;;21.72;69.15;95721.20;1756613;81;21003;-70
2021/08/24 11:14:14;;;;;;;9.48;8.20;;;;;;;21.68;69.74;95722.36;1756513;82;21001;-69
2021/08/24 11:17:01;;;;;;;9.20;8.30;;;;;;;21.63;69.36;95721.30;1755971;81;21067;-70
2021/08/24 11:19:51;;;;;;;7.33;6.62;;;;;;;21.56;69.21;95721.27;1756741;81;21046;-70
2021/08/24 11:22:58;;;;;;;9.93;7.10;;;;;;;21.44;69.15;95720.66;1756116;82;21054;-70
2021/08/24 11:25:45;;;;;;;8.00;7.03;;;;;;;21.35;69.98;95720.22;1756455;81;20959;-70
2021/08/24 11:28:53;;;;;;;5.95;5.35;;;;;;;21.25;69.69;95723.55;1756535;82;21026;-70
2021/08/24 11:31:38;;;;;;;7.05;6.45;;;;;;;21.23;70.45;95716.92;1756492;81;21014;-70
2021/08/24 11:34:18;;;;;;;6.72;6.03;;;;;;;21.24;70.15;95718.63;1756551;81;21019;-70
2021/08/24 11:37:15;;;;;;;7.00;6.30;;;;;;;21.32;70.40;95716.87;1756431;82;21070;-70
2021/08/24 11:40:13;;;;;;;7.10;6.42;;;;;;;21.39;70.46;95719.58;1755223;82;21031;-70
2021/08/24 11:42:44;;;;;;;7.62;6.45;;;;;;;21.41;70.08;95722.19;1756426;82;21042;-70
2021/08/24 11:45:28;;;;;;;8.85;6.50;;;;;;;21.39;70.95;95721.81;1756227;82;21058;-70
2021/08/24 11:48:06;;;;;;;7.20;6.53;;;;;;;21.42;70.11;95722.11;1754739;82;21485;-70
2021/08/24 11:50:59;;;;;;;7.78;7.00;;;;;;;21.41;70.18;95719.02;1756778;82;21046;-70
2021/08/24 11:53:47;;;;;;;7.73;6.40;;;;;;;21.48;71.10;95721.73;1756639;81;21006;-70
2021/08/24 11:56:28;;;;;;;6.78;4.97;;;;;;;21.63;70.90;95716.41;1710685;82;21046;-70